Time;durP1;ratioP1;P1;durP2;ratioP2;P2;SDS_P1;SDS_P2;PMS_P1;PMS_P2;Temp;Humidity;BMP_temperature;BMP_pressure;BME280_temperature;BME280_humidity;BME280_pressure;Samples;Min_cycle;Max_cycle;Signal;HPM_P1;HPM_P2
2022/11/05 00:10:07;;;;;;;6.28;2.30;;;7.60;99.90;;;;;;4230998;28;20067;-88
2022/11/05 00:16:49;;;;;;;;;;;7.60;99.90;;;;;;4231875;28;20059;-88
2022/11/05 00:19:09;;;;;;;11.80;2.03;;;7.60;99.90;;;;;;4231463;28;20438;-88
2022/11/05 00:26:10;;;;;;;10.65;2.20;;;7.50;99.90;;;;;;4228100;28;20834;-91
2022/11/05 00:28:11;;;;;;;6.03;1.63;;;7.50;99.90;;;;;;4205153;28;20052;-90
2022/11/05 00:30:15;;;;;;;7.38;1.85;;;7.50;99.90;;;;;;4230796;28;20055;-91
2022/11/05 00:32:16;;;;;;;6.60;2.30;;;7.50;99.90;;;;;;4229014;28;20032;-90
2022/11/05 00:34:18;;;;;;;7.75;2.20;;;7.40;99.90;;;;;;4236225;28;20046;-90
2022/11/05 00:36:19;;;;;;;7.53;2.03;;;7.40;99.90;;;;;;4227725;28;20138;-90
2022/11/05 00:38:20;;;;;;;4.32;1.60;;;7.50;99.90;;;;;;4245364;28;20042;-90
2022/11/05 00:40:21;;;;;;;13.40;3.00;;;7.50;99.90;;;;;;4245495;28;20075;-89
2022/11/05 00:45:01;;;;;;;4.00;1.90;;;7.40;99.90;;;;;;4252761;27;20043;-88
2022/11/05 00:49:30;;;;;;;8.68;2.08;;;7.40;99.90;;;;;;4246700;28;20040;-88
2022/11/05 00:51:32;;;;;;;5.50;1.90;;;7.40;99.90;;;;;;4230747;28;20053;-88
2022/11/05 00:53:35;;;;;;;7.93;1.80;;;7.40;99.90;;;;;;4227585;28;20048;-88
2022/11/05 00:55:37;;;;;;;7.75;1.67;;;7.60;99.90;;;;;;4210305;28;20549;-89
2022/11/05 00:57:37;;;;;;;6.88;1.40;;;7.40;99.90;;;;;;4235044;27;20075;-89
2022/11/05 00:59:38;;;;;;;9.40;1.88;;;7.40;99.90;;;;;;4234068;28;20081;-89
2022/11/05 01:01:40;;;;;;;4.43;2.00;;;7.40;99.90;;;;;;4226347;28;20053;-88
2022/11/05 01:03:41;;;;;;;8.40;1.90;;;7.30;99.90;;;;;;4226456;28;20043;-89
2022/11/05 01:05:47;;;;;;;9.38;2.30;;;7.50;99.90;;;;;;4236701;28;20107;-89
2022/11/05 01:07:51;;;;;;;4.50;1.70;;;7.40;99.90;;;;;;4219842;28;20067;-89
2022/11/05 01:09:52;;;;;;;5.15;1.90;;;7.40;99.90;;;;;;4236771;28;21083;-89
2022/11/05 01:11:54;;;;;;;10.10;1.98;;;7.40;99.90;;;;;;4202855;28;20486;-89
2022/11/05 01:13:56;;;;;;;8.55;2.00;;;7.40;99.90;;;;;;4231729;28;20149;-89
2022/11/05 01:15:56;;;;;;;7.95;2.30;;;7.40;99.90;;;;;;4236563;28;20441;-89
2022/11/05 01:17:58;;;;;;;3.63;1.75;;;7.40;99.90;;;;;;4238062;28;20126;-89
2022/11/05 01:19:59;;;;;;;10.15;1.60;;;7.40;99.90;;;;;;4248398;27;20047;-89
2022/11/05 01:22:00;;;;;;;5.00;1.40;;;7.40;99.90;;;;;;4224342;27;20103;-89
2022/11/05 01:24:02;;;;;;;6.90;2.53;;;7.30;99.90;;;;;;4225118;28;20048;-89
2022/11/05 01:26:03;;;;;;;6.60;2.15;;;7.40;99.90;;;;;;4229677;28;20051;-89
2022/11/05 01:28:05;;;;;;;6.40;1.67;;;7.40;99.90;;;;;;4216156;28;20521;-90
2022/11/05 01:30:07;;;;;;;6.00;1.60;;;7.40;99.90;;;;;;4217311;27;20051;-90
2022/11/05 01:32:09;;;;;;;10.15;3.00;;;7.40;99.90;;;;;;4212182;28;20118;-90
2022/11/05 01:34:09;;;;;;;6.40;1.70;;;8.60;99.90;;;;;;4232749;28;20513;-90
2022/11/05 01:36:11;;;;;;;6.15;1.40;;;7.40;99.90;;;;;;4232227;28;20032;-90
2022/11/05 01:38:12;;;;;;;6.78;2.13;;;7.30;99.90;;;;;;4232534;28;20039;-90
2022/11/05 01:40:17;;;;;;;8.80;1.80;;;7.30;99.90;;;;;;4228458;28;20040;-89
2022/11/05 01:42:23;;;;;;;10.10;2.42;;;7.30;99.90;;;;;;4232469;28;20067;-90
2022/11/05 01:44:51;;;;;;;9.55;1.92;;;7.40;99.90;;;;;;4228293;28;20043;-90
2022/11/05 01:46:53;;;;;;;11.45;1.45;;;;;;;;;;4217455;28;20044;-90
2022/11/05 01:48:56;;;;;;;7.50;1.63;;;;;;;;;;4222669;28;20065;-90
2022/11/05 01:50:58;;;;;;;8.88;2.58;;;;;;;;;;4233769;28;20489;-90
2022/11/05 01:53:07;;;;;;;7.45;1.90;;;;;;;;;;4203182;28;20131;-90
2022/11/05 01:55:08;;;;;;;;;;;7.30;99.90;;;;;;4222373;28;20409;-89
2022/11/05 01:57:10;;;;;;;10.52;2.00;;;7.30;99.90;;;;;;4234675;28;19920;-90
2022/11/05 01:59:28;;;;;;;9.52;2.40;;;7.20;99.90;;;;;;4232838;28;20047;-90
2022/11/05 02:01:30;;;;;;;4.97;1.63;;;7.30;99.90;;;;;;4232381;28;20069;-90
2022/11/05 02:03:31;;;;;;;8.07;1.50;;;7.20;99.90;;;;;;4215502;28;20054;-90
2022/11/05 02:05:33;;;;;;;3.75;1.42;;;7.20;99.90;;;;;;4212781;28;20124;-90
2022/11/05 02:07:34;;;;;;;9.27;2.00;;;7.20;99.90;;;;;;4230809;28;20512;-90
2022/11/05 02:10:01;;;;;;;6.25;1.38;;;7.20;99.90;;;;;;4232003;28;20083;-90
2022/11/05 02:12:02;;;;;;;3.28;1.40;;;7.20;99.90;;;;;;4232319;28;20526;-90
2022/11/05 02:14:04;;;;;;;7.70;1.40;;;7.20;99.90;;;;;;4231674;28;20414;-89
2022/11/05 02:16:34;;;;;;;3.25;1.13;;;7.10;99.90;;;;;;4231170;28;20093;-89
2022/11/05 02:18:41;;;;;;;4.65;1.17;;;7.20;99.90;;;;;;4228757;28;20081;-90
2022/11/05 02:21:12;;;;;;;6.28;1.65;;;7.20;99.90;;;;;;4231908;28;20460;-89
2022/11/05 02:23:21;;;;;;;4.20;1.45;;;7.20;99.90;;;;;;4228973;28;20109;-91
2022/11/05 02:26:02;;;;;;;4.63;1.20;;;7.20;99.90;;;;;;4219097;28;20044;-89
2022/11/05 02:28:23;;;;;;;8.30;1.88;;;7.20;99.90;;;;;;4215054;28;20036;-90
2022/11/05 02:30:37;;;;;;;5.10;1.20;;;7.20;99.90;;;;;;4231701;28;20235;-89
2022/11/05 02:33:08;;;;;;;6.97;1.88;;;7.20;99.90;;;;;;4226271;28;20051;-89
2022/11/05 02:35:21;;;;;;;5.25;1.50;;;7.20;99.90;;;;;;4232833;28;20039;-89
2022/11/05 02:37:40;;;;;;;1.98;1.10;;;7.20;99.90;;;;;;4214862;28;20422;-89
2022/11/05 02:39:53;;;;;;;3.17;1.25;;;7.10;99.90;;;;;;4219429;28;20036;-89
2022/11/05 02:42:06;;;;;;;5.93;1.30;;;;;;;;;;4226799;28;20040;-89
2022/11/05 02:44:10;;;;;;;2.95;1.30;;;;;;;;;;4216097;28;20044;-89
2022/11/05 02:46:18;;;;;;;6.00;1.13;;;;;;;;;;4219672;28;20081;-89
2022/11/05 02:48:29;;;;;;;3.38;1.75;;;;;;;;;;4230852;28;20108;-89
2022/11/05 02:50:34;;;;;;;6.93;1.10;;;;;;;;;;4231527;28;20116;-89
2022/11/05 02:52:44;;;;;;;5.75;1.27;;;;;;;;;;4231745;28;20561;-89
2022/11/05 02:55:06;;;;;;;7.15;1.33;;;;;;;;;;4228721;28;20394;-89
2022/11/05 02:57:08;;;;;;;3.05;1.40;;;;;;;;;;4230901;28;20046;-90
2022/11/05 02:59:08;;;;;;;7.70;1.40;;;7.10;99.90;;;;;;4209903;28;20047;-89
2022/11/05 03:01:12;;;;;;;4.30;1.52;;;7.10;99.90;;;;;;4230413;28;20593;-90
2022/11/05 03:03:25;;;;;;;6.63;1.20;;;7.00;99.90;;;;;;4214887;28;20482;-89
2022/11/05 03:05:39;;;;;;;6.43;1.15;;;7.00;99.90;;;;;;4230272;28;20078;-89
2022/11/05 03:08:03;;;;;;;7.30;1.27;;;7.20;99.90;;;;;;4231416;28;20051;-89
2022/11/05 03:10:25;;;;;;;4.78;1.67;;;7.00;99.90;;;;;;4220377;28;20047;-90
2022/11/05 03:12:36;;;;;;;7.68;1.30;;;6.90;99.90;;;;;;4231290;28;20414;-90
2022/11/05 03:14:54;;;;;;;3.40;1.08;;;6.90;99.90;;;;;;4230768;28;20439;-89
2022/11/05 03:17:17;;;;;;;6.90;1.00;;;6.90;99.90;;;;;;4218441;28;20474;-90
2022/11/05 03:19:49;;;;;;;8.52;1.10;;;6.90;99.90;;;;;;4213505;28;20086;-89
2022/11/05 03:21:55;;;;;;;4.07;1.25;;;6.90;99.90;;;;;;4230838;28;20389;-89
2022/11/05 03:24:10;;;;;;;5.28;1.65;;;7.40;99.90;;;;;;4224355;28;20050;-88
2022/11/05 03:26:17;;;;;;;6.78;1.67;;;6.90;99.90;;;;;;4227538;28;20109;-88
2022/11/05 03:28:21;;;;;;;3.53;1.55;;;6.90;99.90;;;;;;4229991;28;20047;-89
2022/11/05 03:30:24;;;;;;;9.00;1.75;;;6.90;99.90;;;;;;4217157;28;20052;-89
2022/11/05 03:32:27;;;;;;;4.13;1.67;;;6.90;99.90;;;;;;4226158;28;20460;-89
2022/11/05 03:34:35;;;;;;;2.38;1.10;;;7.00;99.90;;;;;;4237127;27;20039;-89
2022/11/05 03:36:47;;;;;;;3.80;1.13;;;6.90;99.90;;;;;;4232800;28;20458;-90
2022/11/05 03:38:51;;;;;;;6.22;1.10;;;7.10;99.90;;;;;;4197525;28;20052;-91
2022/11/05 03:40:56;;;;;;;4.25;1.20;;;6.90;99.90;;;;;;4232150;28;20383;-90
2022/11/05 03:43:00;;;;;;;6.43;1.25;;;6.90;99.90;;;;;;4210614;28;20407;-89
2022/11/05 03:45:08;;;;;;;5.78;1.08;;;6.90;99.90;;;;;;4214878;28;20047;-89
2022/11/05 03:47:14;;;;;;;5.07;1.10;;;6.90;99.90;;;;;;4226678;28;20048;-89
2022/11/05 03:49:20;;;;;;;3.85;0.80;;;6.90;99.90;;;;;;4230744;28;20055;-89
2022/11/05 03:51:35;;;;;;;2.88;1.50;;;7.00;99.90;;;;;;4225195;28;20549;-88
2022/11/05 03:53:42;;;;;;;6.55;1.42;;;7.00;99.90;;;;;;4215470;28;20063;-89
2022/11/05 03:56:03;;;;;;;4.43;1.20;;;7.20;99.90;;;;;;4196623;28;20545;-88
2022/11/05 03:58:07;;;;;;;3.20;1.08;;;7.00;99.90;;;;;;4219804;28;20207;-89
2022/11/05 04:00:09;;;;;;;7.03;1.00;;;7.10;99.90;;;;;;4231509;28;20152;-88
2022/11/05 04:02:12;;;;;;;3.70;1.02;;;7.10;99.90;;;;;;4221522;28;20067;-88
2022/11/05 04:04:13;;;;;;;2.63;1.00;;;7.20;99.90;;;;;;4230517;28;20118;-88
2022/11/05 04:13:22;;;;;;;4.95;1.13;;;7.20;99.90;;;;;;4238405;28;20075;-88
2022/11/05 04:15:23;;;;;;;3.40;1.30;;;7.30;99.90;;;;;;4236268;28;20036;-88
2022/11/05 04:17:24;;;;;;;3.50;0.90;;;7.30;99.90;;;;;;4234402;28;20105;-88
2022/11/05 04:24:07;;;;;;;4.03;1.00;;;7.40;99.90;;;;;;4249659;28;20063;-88
2022/11/05 04:26:08;;;;;;;4.60;1.27;;;7.30;99.90;;;;;;4244290;28;20039;-89
2022/11/05 04:28:14;;;;;;;7.38;1.23;;;7.30;99.90;;;;;;4227455;28;20383;-89
2022/11/05 04:30:17;;;;;;;6.13;1.00;;;7.40;99.90;;;;;;4233868;28;20386;-89
2022/11/05 04:32:18;;;;;;;4.53;1.25;;;7.40;99.90;;;;;;4233791;28;20497;-89
2022/11/05 04:34:21;;;;;;;2.58;0.90;;;7.40;99.90;;;;;;4233577;28;20052;-89
2022/11/05 04:36:21;;;;;;;1.20;0.85;;;7.90;99.90;;;;;;4234239;28;20052;-89
2022/11/05 04:38:23;;;;;;;4.88;1.27;;;8.10;99.90;;;;;;4235037;28;20144;-89
2022/11/05 04:40:24;;;;;;;3.17;1.30;;;8.00;99.90;;;;;;4233991;28;20127;-89
2022/11/05 04:42:26;;;;;;;6.28;1.10;;;7.40;99.90;;;;;;4233169;28;20081;-89
2022/11/05 04:44:28;;;;;;;3.28;1.00;;;7.40;99.90;;;;;;4216486;28;20047;-89
2022/11/05 04:46:28;;;;;;;2.90;0.98;;;7.50;99.90;;;;;;4223133;28;20044;-89
2022/11/05 04:48:29;;;;;;;5.57;1.10;;;7.90;99.90;;;;;;4233117;28;20643;-89
2022/11/05 04:50:30;;;;;;;5.43;1.02;;;7.50;99.90;;;;;;4235067;28;20568;-89
2022/11/05 04:52:32;;;;;;;10.20;1.20;;;8.10;99.90;;;;;;4233849;28;20477;-89
2022/11/05 04:54:33;;;;;;;4.53;0.98;;;7.70;99.90;;;;;;4215341;28;20083;-90
2022/11/05 04:56:34;;;;;;;4.43;1.35;;;7.40;99.90;;;;;;4215547;28;20048;-89
2022/11/05 04:58:40;;;;;;;3.17;1.20;;;7.40;99.90;;;;;;4231859;28;20134;-89
2022/11/05 05:00:40;;;;;;;6.00;1.00;;;7.50;99.90;;;;;;4222580;28;20071;-89
2022/11/05 05:02:41;;;;;;;2.70;1.08;;;7.50;99.90;;;;;;4218101;28;20551;-89
2022/11/05 05:04:42;;;;;;;2.75;1.13;;;7.40;99.90;;;;;;4225600;28;20128;-90
2022/11/05 05:06:44;;;;;;;4.68;1.88;;;7.40;99.90;;;;;;4232126;28;20085;-89
2022/11/05 05:08:49;;;;;;;6.38;1.73;;;7.40;99.90;;;;;;4232720;28;20048;-89
2022/11/05 05:10:50;;;;;;;2.70;1.30;;;7.40;99.90;;;;;;4233605;28;20482;-89
2022/11/05 05:12:51;;;;;;;3.70;1.17;;;7.40;99.90;;;;;;4232524;28;20090;-89
2022/11/05 05:14:51;;;;;;;6.63;1.50;;;7.70;99.90;;;;;;4232775;28;20046;-89
2022/11/05 05:16:52;;;;;;;7.03;1.95;;;7.40;99.90;;;;;;4232755;28;20494;-89
2022/11/05 05:18:53;;;;;;;4.70;1.75;;;7.30;99.90;;;;;;4244230;27;20108;-88
2022/11/05 05:23:17;;;;;;;4.65;1.60;;;7.20;99.90;;;;;;4232024;28;20052;-88
2022/11/05 05:25:17;;;;;;;4.68;2.25;;;7.20;99.90;;;;;;4233292;28;20047;-88
2022/11/05 05:27:18;;;;;;;6.82;1.92;;;7.20;99.90;;;;;;4232145;28;20047;-88
2022/11/05 05:29:19;;;;;;;3.25;1.50;;;7.20;99.90;;;;;;4218086;28;20040;-88
2022/11/05 05:31:21;;;;;;;5.75;2.35;;;7.20;99.90;;;;;;4216262;28;20047;-88
2022/11/05 05:33:23;;;;;;;4.93;1.95;;;7.30;99.90;;;;;;4216245;28;20036;-88
2022/11/05 05:35:23;;;;;;;7.05;1.90;;;7.20;99.90;;;;;;4199797;28;20044;-88
2022/11/05 05:37:25;;;;;;;5.05;2.17;;;7.50;99.90;;;;;;4223157;28;20557;-88
2022/11/05 05:39:26;;;;;;;4.82;2.38;;;7.10;99.90;;;;;;4233193;28;20439;-88
2022/11/05 05:41:27;;;;;;;13.63;2.88;;;7.10;99.90;;;;;;4231485;28;20122;-88
2022/11/05 05:43:31;;;;;;;8.10;2.78;;;7.00;99.90;;;;;;4214749;28;20549;-88
2022/11/05 05:45:36;;;;;;;6.78;2.58;;;7.00;99.90;;;;;;4231212;28;20047;-89
2022/11/05 05:47:37;;;;;;;8.65;2.50;;;7.00;99.90;;;;;;4231955;28;20047;-88
2022/11/05 05:49:40;;;;;;;10.38;2.60;;;7.00;99.90;;;;;;4230963;28;20559;-89
2022/11/05 05:51:40;;;;;;;5.53;2.70;;;7.00;99.90;;;;;;4214214;28;20525;-88
2022/11/05 05:53:41;;;;;;;7.25;2.70;;;7.10;99.90;;;;;;4231245;28;20047;-88
2022/11/05 05:55:43;;;;;;;4.85;2.30;;;6.90;99.90;;;;;;4232027;28;20040;-88
2022/11/05 05:57:44;;;;;;;7.18;2.42;;;6.90;99.90;;;;;;4231111;28;20459;-89
2022/11/05 05:59:45;;;;;;;7.82;2.70;;;6.90;99.90;;;;;;4230979;28;20131;-88
2022/11/05 06:01:46;;;;;;;4.30;2.20;;;6.90;99.90;;;;;;4225508;28;20050;-88
2022/11/05 06:03:48;;;;;;;5.65;2.75;;;6.90;99.90;;;;;;4199216;28;20050;-88
2022/11/05 06:05:48;;;;;;;7.78;2.90;;;6.90;99.90;;;;;;4231202;28;20044;-89
2022/11/05 06:07:59;;;;;;;7.10;2.92;;;6.90;99.90;;;;;;4220701;28;20102;-88
2022/11/05 06:10:00;;;;;;;6.07;2.78;;;6.80;99.90;;;;;;4213982;28;20054;-88
2022/11/05 06:12:01;;;;;;;5.68;2.92;;;6.80;99.90;;;;;;4213326;28;20498;-88
2022/11/05 06:14:02;;;;;;;4.85;2.42;;;6.80;99.90;;;;;;4214084;28;20055;-88
2022/11/05 06:16:08;;;;;;;8.48;2.60;;;6.80;99.90;;;;;;4213850;28;20533;-88
2022/11/05 06:18:08;;;;;;;8.35;2.78;;;6.80;99.90;;;;;;4222142;28;20065;-89
2022/11/05 06:20:10;;;;;;;7.10;3.35;;;6.80;99.90;;;;;;4214533;28;20052;-87
2022/11/05 06:22:12;;;;;;;6.75;2.80;;;6.80;99.90;;;;;;4232525;28;20094;-88
2022/11/05 06:24:14;;;;;;;9.05;3.55;;;6.80;99.90;;;;;;4232009;28;20413;-88
2022/11/05 06:26:16;;;;;;;6.22;2.97;;;6.80;99.90;;;;;;4231650;28;20087;-88
2022/11/05 06:28:17;;;;;;;5.63;2.58;;;6.80;99.90;;;;;;4230859;28;20079;-88
2022/11/05 06:30:20;;;;;;;8.00;2.85;;;7.40;99.90;;;;;;4233045;28;20165;-88
2022/11/05 06:32:21;;;;;;;4.00;2.75;;;6.80;99.90;;;;;;4232690;28;20503;-88
2022/11/05 06:34:23;;;;;;;5.82;2.63;;;6.80;99.90;;;;;;4230556;28;20047;-88
2022/11/05 06:36:25;;;;;;;3.88;2.50;;;6.80;99.90;;;;;;4218108;28;20044;-89
2022/11/05 06:38:30;;;;;;;9.70;2.60;;;6.80;99.90;;;;;;4220742;28;20108;-89
2022/11/05 06:40:30;;;;;;;6.28;2.45;;;6.70;99.90;;;;;;4209560;28;20606;-89
2022/11/05 06:42:31;;;;;;;7.07;3.10;;;6.70;99.90;;;;;;4217958;28;20539;-88
2022/11/05 06:44:33;;;;;;;7.82;2.80;;;7.10;99.90;;;;;;4218842;28;20043;-88
2022/11/05 06:46:33;;;;;;;5.30;1.98;;;6.70;99.90;;;;;;4227945;28;20127;-88
2022/11/05 06:48:35;;;;;;;7.97;2.45;;;7.10;99.90;;;;;;4218037;28;20056;-89
2022/11/05 06:50:37;;;;;;;5.38;2.78;;;6.60;99.90;;;;;;4235337;28;20051;-88
2022/11/05 06:52:39;;;;;;;5.72;3.10;;;6.60;99.90;;;;;;4248962;27;20051;-88
2022/11/05 06:54:41;;;;;;;7.03;2.13;;;6.60;99.90;;;;;;4249609;27;20047;-89
2022/11/05 06:56:42;;;;;;;4.20;2.30;;;6.70;99.90;;;;;;4249471;27;20046;-88
2022/11/05 06:58:44;;;;;;;5.78;2.35;;;6.60;99.90;;;;;;4232085;28;20050;-89
2022/11/05 07:00:45;;;;;;;4.88;2.10;;;6.60;99.90;;;;;;4233389;28;20091;-89
2022/11/05 07:02:46;;;;;;;6.60;2.17;;;6.70;99.90;;;;;;4233245;28;20130;-89
2022/11/05 07:04:48;;;;;;;4.30;2.50;;;6.60;99.90;;;;;;4239602;27;20039;-90
2022/11/05 07:06:49;;;;;;;5.40;2.75;;;6.80;99.90;;;;;;4234133;28;20067;-89
2022/11/05 07:08:51;;;;;;;7.10;2.75;;;6.60;99.90;;;;;;4239870;28;20043;-87
2022/11/05 07:10:53;;;;;;;7.35;2.45;;;6.60;99.90;;;;;;4239413;28;20107;-88
2022/11/05 07:12:54;;;;;;;3.10;2.13;;;6.70;99.90;;;;;;4226295;28;20126;-89
2022/11/05 07:14:55;;;;;;;6.18;2.50;;;6.60;99.90;;;;;;4243011;28;20051;-89
2022/11/05 07:16:57;;;;;;;5.82;2.47;;;6.60;99.90;;;;;;4225997;28;20138;-89
2022/11/05 07:18:57;;;;;;;5.03;2.63;;;6.70;99.90;;;;;;4241869;28;20126;-89
2022/11/05 07:20:59;;;;;;;6.45;2.72;;;6.60;99.90;;;;;;4240793;28;20055;-88
2022/11/05 07:23:13;;;;;;;6.40;2.40;;;6.80;99.90;;;;;;4242330;28;20084;-89
2022/11/05 07:25:14;;;;;;;7.20;2.30;;;6.70;99.90;;;;;;4237210;28;20055;-89
2022/11/05 07:27:16;;;;;;;9.13;2.85;;;6.70;99.90;;;;;;4218019;28;20078;-91
2022/11/05 07:29:19;;;;;;;7.22;3.17;;;6.70;99.90;;;;;;4215945;28;20048;-89
2022/11/05 07:31:22;;;;;;;7.75;2.78;;;7.00;99.90;;;;;;4216463;28;20048;-91
2022/11/05 07:33:23;;;;;;;9.38;2.38;;;6.80;99.90;;;;;;4217730;28;20051;-90
2022/11/05 07:35:24;;;;;;;8.23;2.60;;;6.80;99.90;;;;;;4229950;28;20576;-89
2022/11/05 07:37:24;;;;;;;8.70;3.13;;;6.20;99.90;;;;;;4216247;28;20043;-89
2022/11/05 07:39:25;;;;;;;5.68;2.53;;;6.80;99.90;;;;;;4197938;28;20114;-89
2022/11/05 07:41:26;;;;;;;7.63;2.08;;;6.90;99.90;;;;;;4213208;28;20044;-88
2022/11/05 07:43:26;;;;;;;5.07;2.45;;;7.00;99.90;;;;;;4205662;28;20056;-89
2022/11/05 07:45:29;;;;;;;7.30;2.80;;;6.90;99.90;;;;;;4199852;28;20043;-89
2022/11/05 07:47:31;;;;;;;5.50;2.17;;;7.00;99.90;;;;;;4213520;28;20048;-90
2022/11/05 07:49:33;;;;;;;4.80;2.70;;;7.00;99.90;;;;;;4213301;28;20129;-90
2022/11/05 07:51:34;;;;;;;6.97;2.13;;;7.10;99.90;;;;;;4213246;28;20062;-91
2022/11/05 07:53:35;;;;;;;6.93;2.70;;;7.20;99.90;;;;;;4230202;28;20398;-90
2022/11/05 07:55:36;;;;;;;4.13;2.53;;;7.10;99.90;;;;;;4229709;28;20073;-91
2022/11/05 07:57:45;;;;;;;7.78;2.90;;;7.20;99.90;;;;;;4213119;28;20048;-91
2022/11/05 07:59:46;;;;;;;6.80;2.65;;;7.20;99.90;;;;;;4213554;28;20568;-91
2022/11/05 08:01:48;;;;;;;5.68;2.47;;;7.20;99.90;;;;;;4229585;28;20044;-90
2022/11/05 08:03:48;;;;;;;4.80;2.70;;;7.30;99.90;;;;;;4230221;28;20040;-90
2022/11/05 08:05:49;;;;;;;5.28;2.42;;;7.30;99.90;;;;;;4213019;28;20097;-91
2022/11/05 08:07:51;;;;;;;8.27;3.17;;;7.30;99.90;;;;;;4231747;28;20494;-90
2022/11/05 08:09:53;;;;;;;7.80;3.05;;;7.30;99.90;;;;;;4231392;28;20123;-90
2022/11/05 08:11:56;;;;;;;9.48;2.85;;;7.40;99.90;;;;;;4213897;28;20130;-90
2022/11/05 08:13:57;;;;;;;4.47;2.40;;;7.40;99.90;;;;;;4213284;28;20044;-90
2022/11/05 08:15:58;;;;;;;6.18;2.50;;;7.40;99.90;;;;;;4230501;28;20114;-90
2022/11/05 08:18:06;;;;;;;6.88;2.55;;;7.60;99.90;;;;;;4226427;28;20047;-90
2022/11/05 08:20:07;;;;;;;4.80;2.50;;;7.50;99.90;;;;;;4218126;28;20052;-91
2022/11/05 08:22:08;;;;;;;5.03;2.45;;;7.60;99.90;;;;;;4230059;28;20109;-90
2022/11/05 08:24:11;;;;;;;5.47;2.63;;;7.70;99.90;;;;;;4230023;28;20112;-89
2022/11/05 08:26:12;;;;;;;5.22;2.50;;;7.70;99.90;;;;;;4215755;28;20048;-91
2022/11/05 08:28:12;;;;;;;5.03;2.30;;;8.10;99.90;;;;;;4220074;28;20047;-90
2022/11/05 08:30:14;;;;;;;6.78;2.38;;;8.50;99.90;;;;;;4212981;28;20052;-90
2022/11/05 08:32:15;;;;;;;5.45;2.30;;;9.00;99.90;;;;;;4230715;28;20086;-90
2022/11/05 08:34:16;;;;;;;5.60;2.05;;;9.70;99.90;;;;;;4230834;28;20043;-90
2022/11/05 08:36:16;;;;;;;7.28;2.20;;;10.50;99.90;;;;;;4224852;28;20054;-90
2022/11/05 08:38:18;;;;;;;3.90;2.45;;;11.40;99.90;;;;;;4231050;28;20610;-90
2022/11/05 08:40:19;;;;;;;3.17;1.58;;;12.20;99.90;;;;;;4230962;28;20166;-90
2022/11/05 08:42:19;;;;;;;9.75;2.40;;;12.90;99.90;;;;;;4212882;28;20044;-90
2022/11/05 08:44:20;;;;;;;4.45;1.75;;;13.50;99.90;;;;;;4229426;28;20052;-89
2022/11/05 08:46:21;;;;;;;7.47;1.70;;;14.00;99.90;;;;;;4209757;28;20047;-90
2022/11/05 08:48:23;;;;;;;4.93;1.58;;;14.40;99.90;;;;;;4229773;28;20051;-90
2022/11/05 08:50:24;;;;;;;7.15;1.55;;;13.80;99.90;;;;;;4230347;28;20188;-90
2022/11/05 08:52:24;;;;;;;3.63;1.42;;;12.90;99.90;;;;;;4230841;28;20051;-89
2022/11/05 08:54:25;;;;;;;6.85;2.00;;;12.20;99.90;;;;;;4235048;28;20065;-89
2022/11/05 08:56:26;;;;;;;4.45;1.88;;;11.70;99.90;;;;;;4218433;28;20047;-90
2022/11/05 08:58:26;;;;;;;6.57;1.65;;;11.40;99.90;;;;;;4216076;28;20079;-89
2022/11/05 09:00:29;;;;;;;5.57;1.77;;;11.20;99.90;;;;;;4235506;28;20131;-88
2022/11/05 09:02:31;;;;;;;6.65;1.80;;;11.20;99.90;;;;;;4234681;28;20052;-89
2022/11/05 09:04:32;;;;;;;5.30;2.13;;;11.70;99.90;;;;;;4234962;28;20063;-90
2022/11/05 09:06:33;;;;;;;6.43;1.55;;;12.80;99.90;;;;;;4234070;28;20264;-89
2022/11/05 09:08:35;;;;;;;4.57;1.85;;;13.90;99.90;;;;;;4234358;28;20051;-90
2022/11/05 09:10:36;;;;;;;3.67;1.80;;;14.80;99.90;;;;;;4233287;28;20055;-90
2022/11/05 09:12:37;;;;;;;7.47;1.63;;;15.30;99.90;;;;;;4233488;28;20085;-90
2022/11/05 09:14:37;;;;;;;3.10;1.38;;;15.30;99.90;;;;;;4232548;28;20134;-89
2022/11/05 09:16:38;;;;;;;6.95;2.08;;;14.60;99.90;;;;;;4222312;28;20131;-89
2022/11/05 09:18:41;;;;;;;7.32;1.50;;;14.00;99.90;;;;;;4216575;28;20063;-88
2022/11/05 09:20:42;;;;;;;6.43;1.70;;;13.60;99.90;;;;;;4231995;28;20090;-89
2022/11/05 09:22:43;;;;;;;4.13;1.35;;;13.50;99.90;;;;;;4232409;28;20551;-89
2022/11/05 09:24:43;;;;;;;5.70;1.77;;;14.00;99.90;;;;;;4231628;28;20048;-90
2022/11/05 09:26:44;;;;;;;4.97;1.70;;;14.80;99.90;;;;;;4231995;28;20075;-88
2022/11/05 09:28:45;;;;;;;8.40;1.20;;;15.30;99.90;;;;;;4232800;28;20078;-90
2022/11/05 09:30:49;;;;;;;4.82;1.10;;;15.90;99.90;;;;;;4215737;28;20047;-90
2022/11/05 09:32:49;;;;;;;4.55;1.25;;;15.90;99.90;;;;;;4231756;28;20079;-91
2022/11/05 09:34:50;;;;;;;2.70;1.65;;;15.70;99.90;;;;;;4232370;28;20044;-90
2022/11/05 09:36:52;;;;;;;2.78;1.15;;;15.50;99.90;;;;;;4215146;28;20425;-90
2022/11/05 09:38:52;;;;;;;5.47;1.35;;;15.10;99.90;;;;;;4232368;28;20044;-90
2022/11/05 09:41:02;;;;;;;3.25;1.17;;;14.80;99.90;;;;;;4215547;28;20056;-90
2022/11/05 09:43:03;;;;;;;;;;;14.40;99.90;;;;;;4215674;28;20529;-89
2022/11/05 09:45:16;;;;;;;2.90;1.00;;;13.80;99.90;;;;;;4233164;27;19923;-90
2022/11/05 09:47:24;;;;;;;2.42;1.20;;;13.30;99.90;;;;;;4232425;28;20056;-90
2022/11/05 09:49:38;;;;;;;4.40;1.60;;;12.90;99.90;;;;;;4233449;28;20081;-87
2022/11/05 09:51:40;;;;;;;5.50;1.40;;;12.50;99.90;;;;;;4217810;28;20111;-89
2022/11/05 09:53:44;;;;;;;4.40;1.38;;;12.30;99.90;;;;;;4232567;28;20048;-90
2022/11/05 09:55:50;;;;;;;4.45;1.50;;;12.20;99.90;;;;;;4223452;28;20084;-90
2022/11/05 09:58:00;;;;;;;4.03;1.42;;;12.20;99.90;;;;;;4217294;28;20130;-89
2022/11/05 10:00:05;;;;;;;3.60;1.40;;;12.30;99.90;;;;;;4218846;28;20144;-89
2022/11/05 10:02:56;;;;;;;5.07;1.25;;;12.20;99.90;;;;;;4228476;28;20054;-90
2022/11/05 10:05:01;;;;;;;5.75;1.13;;;12.20;99.90;;;;;;4228859;28;20055;-89
2022/11/05 10:07:04;;;;;;;5.72;1.10;;;12.10;99.90;;;;;;4232315;28;20099;-90
2022/11/05 10:09:29;;;;;;;7.70;2.42;;;12.00;99.90;;;;;;4219982;28;20051;-89
2022/11/05 10:11:53;;;;;;;5.93;1.52;;;12.00;99.90;;;;;;4232299;28;20057;-89
2022/11/05 10:14:04;;;;;;;4.88;1.50;;;12.10;99.90;;;;;;4228676;28;20063;-89
2022/11/05 10:16:22;;;;;;;3.25;1.25;;;12.10;99.90;;;;;;4232830;28;20059;-90
2022/11/05 10:18:37;;;;;;;2.78;1.30;;;12.20;99.90;;;;;;4234504;28;20130;-89
2022/11/05 10:20:38;;;;;;;9.77;1.65;;;12.50;99.90;;;;;;4232637;28;20084;-88
2022/11/05 10:22:39;;;;;;;5.45;1.20;;;12.80;99.90;;;;;;4215467;28;20098;-89
2022/11/05 10:24:43;;;;;;;7.68;2.08;;;13.10;99.90;;;;;;4213950;28;20058;-89
2022/11/05 10:26:47;;;;;;;4.30;1.23;;;13.20;99.90;;;;;;4233497;28;20154;-89
2022/11/05 10:28:50;;;;;;;2.80;1.10;;;13.30;99.90;;;;;;4232265;28;20493;-89
2022/11/05 10:31:05;;;;;;;1.65;1.10;;;13.20;99.90;;;;;;4232127;28;20180;-89
2022/11/05 10:33:09;;;;;;;1.77;1.10;;;13.30;99.90;;;;;;4231464;28;20059;-89
2022/11/05 10:35:18;;;;;;;4.75;1.88;;;13.30;99.90;;;;;;4231434;28;20055;-89
2022/11/05 10:37:21;;;;;;;4.05;1.80;;;13.20;99.90;;;;;;4231720;28;20086;-89
2022/11/05 10:39:26;;;;;;;6.05;1.70;;;13.10;99.90;;;;;;4213562;28;20126;-89
2022/11/05 10:41:45;;;;;;;4.32;1.05;;;12.90;99.90;;;;;;4227801;28;20051;-89
2022/11/05 10:43:50;;;;;;;;;;;13.00;99.90;;;;;;4232473;28;20075;-89
2022/11/05 10:46:08;;;;;;;3.28;1.38;;;13.40;99.90;;;;;;4232259;27;19920;-88
2022/11/05 10:48:34;;;;;;;2.95;1.17;;;13.80;99.90;;;;;;4231893;28;20042;-89
2022/11/05 10:50:43;;;;;;;2.83;0.98;;;14.10;99.90;;;;;;4232946;28;20096;-88
2022/11/05 10:52:56;;;;;;;3.78;1.25;;;14.40;99.90;;;;;;4222378;28;20052;-89
2022/11/05 10:55:01;;;;;;;2.08;1.13;;;14.60;99.90;;;;;;4218575;28;20043;-89
2022/11/05 10:57:37;;;;;;;6.32;1.40;;;14.90;99.90;;;;;;4227448;28;20044;-88
2022/11/05 10:59:37;;;;;;;2.35;1.25;;;15.10;99.90;;;;;;4217693;28;20512;-89
2022/11/05 11:01:39;;;;;;;4.35;1.30;;;15.10;99.90;;;;;;4242438;27;20075;-89
2022/11/05 11:03:47;;;;;;;2.53;1.23;;;15.10;99.90;;;;;;4217055;28;20423;-89
2022/11/05 11:05:47;;;;;;;1.38;0.85;;;15.20;99.90;;;;;;4232944;28;20043;-87
2022/11/05 11:08:10;;;;;;;5.20;1.33;;;15.30;99.90;;;;;;4214814;28;20093;-88
2022/11/05 11:10:24;;;;;;;3.38;1.00;;;15.30;99.90;;;;;;4232252;28;20122;-88
2022/11/05 11:12:30;;;;;;;4.05;1.10;;;15.20;99.90;;;;;;4214447;28;20055;-89
2022/11/05 11:14:33;;;;;;;7.30;1.38;;;15.20;99.90;;;;;;4221175;28;20054;-89
2022/11/05 11:16:38;;;;;;;2.35;1.15;;;15.30;99.90;;;;;;4213676;28;20148;-88
2022/11/05 11:18:41;;;;;;;5.78;1.25;;;15.30;99.90;;;;;;4232149;28;20417;-87
2022/11/05 11:20:45;;;;;;;5.18;1.23;;;15.40;99.90;;;;;;4230338;28;20074;-87
2022/11/05 11:23:12;;;;;;;3.92;1.25;;;15.60;99.90;;;;;;4230612;28;20047;-87
2022/11/05 11:25:24;;;;;;;2.95;1.20;;;;;;;;;;4231210;28;20618;-87
2022/11/05 11:27:32;;;;;;;3.78;1.27;;;15.50;99.90;;;;;;4230335;28;20048;-87
2022/11/05 11:29:38;;;;;;;3.60;1.08;;;15.80;99.90;;;;;;4215778;28;20654;-91
2022/11/05 11:31:39;;;;;;;3.90;1.25;;;16.10;99.90;;;;;;4229628;28;20387;-88
2022/11/05 11:33:46;;;;;;;3.38;1.15;;;16.10;99.90;;;;;;4230784;28;20063;-87
2022/11/05 11:35:47;;;;;;;4.75;1.00;;;16.00;99.90;;;;;;4215055;28;20115;-85
2022/11/05 11:37:50;;;;;;;2.00;1.13;;;16.10;99.90;;;;;;4222830;28;20105;-88